Time;durP1;ratioP1;P1;durP2;ratioP2;P2;SDS_P1;SDS_P2;PMS_P1;PMS_P2;Temp;Humidity;BMP_temperature;BMP_pressure;BME280_temperature;BME280_humidity;BME280_pressure;Samples;Min_cycle;Max_cycle;Signal;HPM_P1;HPM_P2
2022/03/04 00:02:16;;;;;;;7.57;4.97;;;0.40;81.20;;;;;;4993015;28;20181;-78
2022/03/04 00:04:42;;;;;;;10.10;5.13;;;0.40;81.20;;;;;;4999420;28;20267;-78
2022/03/04 00:07:08;;;;;;;5.97;4.33;;;0.40;81.20;;;;;;4996648;28;20190;-77
2022/03/04 00:09:34;;;;;;;9.73;5.17;;;0.40;81.20;;;;;;4996670;28;20286;-78
2022/03/04 00:12:02;;;;;;;9.13;5.90;;;0.40;81.20;;;;;;4997760;28;20184;-78
2022/03/04 00:14:28;;;;;;;13.00;7.37;;;0.40;81.50;;;;;;4995750;28;20193;-78
2022/03/04 00:16:54;;;;;;;19.33;7.17;;;0.40;81.70;;;;;;4996779;28;20186;-77
2022/03/04 00:19:20;;;;;;;10.50;7.40;;;0.40;81.90;;;;;;4994692;28;20197;-77
2022/03/04 00:21:48;;;;;;;14.63;6.97;;;0.30;82.10;;;;;;4995589;28;20177;-78
2022/03/04 00:24:19;;;;;;;11.77;7.27;;;0.30;82.30;;;;;;4996236;28;20203;-79
2022/03/04 00:26:46;;;;;;;12.93;8.40;;;0.30;82.50;;;;;;4996273;28;20191;-78
2022/03/04 00:29:12;;;;;;;12.63;7.77;;;0.30;82.60;;;;;;4993083;28;20185;-78
2022/03/04 00:31:39;;;;;;;12.60;6.43;;;0.30;82.70;;;;;;4994943;28;20189;-79
2022/03/04 00:34:06;;;;;;;14.10;6.23;;;0.30;82.50;;;;;;4996931;28;20185;-77
2022/03/04 00:36:35;;;;;;;12.63;7.97;;;0.20;82.50;;;;;;5002246;28;20193;-78
2022/03/04 00:39:04;;;;;;;14.20;7.33;;;0.20;82.80;;;;;;5000557;28;20196;-78
2022/03/04 00:41:30;;;;;;;18.57;8.83;;;0.30;82.80;;;;;;5003636;28;20177;-78
2022/03/04 00:43:57;;;;;;;9.07;6.93;;;0.30;82.80;;;;;;5002083;28;20222;-78
2022/03/04 00:46:23;;;;;;;14.33;7.97;;;0.30;82.90;;;;;;4996975;28;20951;-78
2022/03/04 00:48:49;;;;;;;12.67;7.67;;;0.20;82.90;;;;;;5003145;28;20173;-78
2022/03/04 00:51:15;;;;;;;14.37;7.80;;;0.30;82.90;;;;;;4996367;28;20216;-78
2022/03/04 00:53:42;;;;;;;9.57;7.13;;;0.30;82.90;;;;;;4997118;28;20579;-78
2022/03/04 00:56:09;;;;;;;11.43;6.90;;;0.20;83.20;;;;;;4998049;28;20268;-78
2022/03/04 00:58:36;;;;;;;9.70;6.73;;;0.20;83.30;;;;;;4995557;28;20189;-78
2022/03/04 01:01:03;;;;;;;11.90;7.07;;;0.20;83.40;;;;;;4996304;28;20195;-77
2022/03/04 01:03:28;;;;;;;12.00;6.37;;;0.20;83.40;;;;;;5003097;28;20189;-79
2022/03/04 01:05:57;;;;;;;11.33;6.70;;;0.20;83.50;;;;;;5004026;28;20254;-77
2022/03/04 01:08:23;;;;;;;12.50;7.10;;;0.20;83.50;;;;;;4999198;28;20191;-78
2022/03/04 01:10:48;;;;;;;11.43;6.67;;;0.20;83.50;;;;;;4999761;28;20217;-78
2022/03/04 01:13:14;;;;;;;14.70;8.17;;;0.20;83.50;;;;;;5000042;28;20207;-78
2022/03/04 01:15:40;;;;;;;7.07;5.90;;;0.20;83.70;;;;;;4999323;28;20189;-78
2022/03/04 01:18:06;;;;;;;12.17;6.50;;;0.20;83.80;;;;;;4997848;28;20192;-78
2022/03/04 01:20:33;;;;;;;10.47;6.33;;;0.20;83.70;;;;;;5001444;28;20201;-79
2022/03/04 01:22:59;;;;;;;14.80;6.40;;;0.10;83.80;;;;;;4999847;28;20189;-78
2022/03/04 01:25:25;;;;;;;10.20;5.37;;;0.10;83.80;;;;;;4999247;28;20247;-78
2022/03/04 01:27:51;;;;;;;13.07;7.67;;;0.10;83.80;;;;;;4998454;28;20622;-78
2022/03/04 01:30:18;;;;;;;10.50;8.07;;;0.10;83.80;;;;;;4999689;28;20251;-78
2022/03/04 01:32:44;;;;;;;12.17;6.77;;;0.10;83.80;;;;;;4995515;28;20288;-79
2022/03/04 01:35:10;;;;;;;12.53;7.30;;;0.10;83.90;;;;;;5003248;28;20216;-78
2022/03/04 01:37:36;;;;;;;26.87;7.47;;;0.10;84.00;;;;;;4998532;28;20368;-77
2022/03/04 01:40:04;;;;;;;16.93;7.93;;;0.10;84.10;;;;;;4997955;28;20199;-77
2022/03/04 01:42:30;;;;;;;8.97;6.87;;;0.10;84.10;;;;;;4996631;28;20186;-78
2022/03/04 01:44:56;;;;;;;15.07;7.87;;;0.10;84.10;;;;;;4995617;28;20182;-80
2022/03/04 01:47:21;;;;;;;14.07;6.80;;;0.10;84.10;;;;;;4997452;28;20951;-78
2022/03/04 01:49:47;;;;;;;14.27;8.27;;;0.10;84.40;;;;;;4997286;28;20839;-78
2022/03/04 01:52:13;;;;;;;11.60;7.57;;;0.10;84.40;;;;;;4996754;28;20560;-79
2022/03/04 01:54:52;;;;;;;14.67;8.17;;;0.10;84.60;;;;;;5092166;27;20570;-78
2022/03/04 01:57:17;;;;;;;15.97;8.70;;;0.10;84.60;;;;;;5084562;28;20239;-77
2022/03/04 01:59:43;;;;;;;15.47;9.20;;;0.10;84.70;;;;;;5085478;28;20263;-78
2022/03/04 02:02:12;;;;;;;14.20;7.97;;;0.10;84.70;;;;;;5087978;28;20655;-78
2022/03/04 02:04:38;;;;;;;14.97;8.87;;;0.00;84.80;;;;;;5088274;28;20714;-78
2022/03/04 02:07:04;;;;;;;18.07;9.87;;;0.10;84.90;;;;;;5086470;28;20214;-78
2022/03/04 02:09:30;;;;;;;9.80;8.30;;;0.10;84.90;;;;;;5095193;28;20174;-78
2022/03/04 02:11:56;;;;;;;13.60;7.53;;;0.10;84.90;;;;;;5085925;28;20251;-79
2022/03/04 02:14:22;;;;;;;14.07;7.87;;;0.10;85.30;;;;;;5088391;28;20325;-78
2022/03/04 02:16:52;;;;;;;17.63;9.17;;;0.10;85.20;;;;;;5086288;28;20680;-78
2022/03/04 02:19:19;;;;;;;15.20;7.70;;;0.10;85.20;;;;;;5091036;28;20190;-78
2022/03/04 02:21:55;;;;;;;16.30;8.47;;;0.10;85.20;;;;;;5088172;28;20190;-79
2022/03/04 02:24:22;;;;;;;16.07;8.87;;;0.00;85.30;;;;;;5084934;28;20186;-79
2022/03/04 02:26:50;;;;;;;11.50;8.17;;;0.00;85.30;;;;;;5088830;28;20386;-79
2022/03/04 02:29:16;;;;;;;14.00;9.20;;;0.00;85.40;;;;;;5093475;28;20674;-79
2022/03/04 02:31:43;;;;;;;14.47;9.17;;;0.00;85.30;;;;;;5087152;28;20182;-78
2022/03/04 02:34:08;;;;;;;12.20;8.03;;;0.00;85.40;;;;;;5090484;28;20218;-79
2022/03/04 02:36:35;;;;;;;12.13;7.77;;;0.00;85.40;;;;;;5085159;28;20192;-79
2022/03/04 02:39:01;;;;;;;8.63;7.57;;;0.00;85.50;;;;;;5086168;28;20183;-79
2022/03/04 02:41:26;;;;;;;13.13;8.17;;;0.00;85.70;;;;;;5091225;28;20202;-78
2022/03/04 02:43:52;;;;;;;19.77;9.87;;;0.00;85.70;;;;;;5090092;28;20205;-78
2022/03/04 02:46:18;;;;;;;20.07;10.03;;;0.00;85.70;;;;;;5084275;28;20840;-78
2022/03/04 02:48:44;;;;;;;10.73;8.73;;;-0.10;86.10;;;;;;5090283;28;20186;-78
2022/03/04 02:51:11;;;;;;;11.10;8.30;;;-0.10;86.10;;;;;;5083917;28;20194;-79
2022/03/04 02:53:36;;;;;;;18.97;9.53;;;-0.10;86.10;;;;;;5084230;28;20241;-79
2022/03/04 02:56:02;;;;;;;9.17;7.37;;;-0.10;86.10;;;;;;5086057;28;20891;-78
2022/03/04 02:58:28;;;;;;;11.77;7.97;;;-0.10;86.10;;;;;;5093656;28;20247;-79
2022/03/04 03:00:54;;;;;;;12.20;8.77;;;-0.10;86.00;;;;;;5088755;28;20181;-78
2022/03/04 03:03:19;;;;;;;15.73;8.47;;;-0.10;85.90;;;;;;5089158;28;20278;-78
2022/03/04 03:05:45;;;;;;;12.30;8.57;;;-0.10;86.10;;;;;;5076795;28;20198;-79
2022/03/04 03:08:11;;;;;;;12.27;8.23;;;-0.10;86.10;;;;;;5072270;28;20183;-79
2022/03/04 03:10:37;;;;;;;16.33;9.50;;;-0.10;86.20;;;;;;5071750;28;20182;-79
2022/03/04 03:13:03;;;;;;;14.70;8.97;;;-0.10;86.40;;;;;;5069838;28;20198;-78
2022/03/04 03:15:29;;;;;;;13.83;8.83;;;-0.10;86.40;;;;;;5071413;28;20194;-78
2022/03/04 03:17:55;;;;;;;12.47;7.90;;;-0.20;86.40;;;;;;5075485;28;20171;-79
2022/03/04 03:20:21;;;;;;;19.60;9.67;;;-0.20;86.40;;;;;;5078307;28;20179;-77
2022/03/04 03:22:47;;;;;;;16.50;9.43;;;-0.20;86.50;;;;;;5074193;28;20626;-78
2022/03/04 03:25:13;;;;;;;13.00;7.77;;;-0.20;86.50;;;;;;5077020;28;20664;-79
2022/03/04 03:27:39;;;;;;;16.90;10.40;;;-0.20;86.50;;;;;;5072721;28;20262;-78
2022/03/04 03:30:06;;;;;;;16.77;8.50;;;-0.20;86.40;;;;;;5072448;28;20190;-78
2022/03/04 03:32:32;;;;;;;12.33;8.43;;;-0.20;86.40;;;;;;5073929;28;20183;-78
2022/03/04 03:34:57;;;;;;;19.73;8.27;;;-0.20;86.50;;;;;;5068388;28;20187;-77
2022/03/04 03:37:24;;;;;;;15.27;8.27;;;-0.20;86.30;;;;;;5072056;28;20293;-78
2022/03/04 03:39:50;;;;;;;14.07;8.00;;;-0.20;86.30;;;;;;5071824;28;20566;-78
2022/03/04 03:42:15;;;;;;;15.80;9.50;;;-0.30;86.30;;;;;;5073207;28;20186;-78
2022/03/04 03:44:41;;;;;;;18.10;7.73;;;-0.30;86.30;;;;;;5072415;28;20190;-78
2022/03/04 03:47:09;;;;;;;10.47;7.90;;;-0.30;86.30;;;;;;5066577;28;20188;-78
2022/03/04 03:49:35;;;;;;;22.47;8.20;;;-0.30;86.20;;;;;;5063954;28;20183;-78
2022/03/04 03:52:01;;;;;;;10.67;7.63;;;-0.40;86.30;;;;;;5063596;28;20179;-78
2022/03/04 03:54:27;;;;;;;10.37;8.57;;;-0.40;86.20;;;;;;5073779;28;20267;-77
2022/03/04 03:56:53;;;;;;;10.13;7.73;;;-0.40;86.20;;;;;;5072770;28;20695;-76
2022/03/04 03:59:18;;;;;;;12.30;7.53;;;-0.40;86.20;;;;;;5068289;28;20202;-77
2022/03/04 04:01:44;;;;;;;13.17;7.90;;;-0.50;86.20;;;;;;5076806;28;20270;-77
2022/03/04 04:04:13;;;;;;;18.00;8.57;;;-0.50;86.30;;;;;;5074037;28;20187;-77
2022/03/04 04:06:43;;;;;;;14.77;7.63;;;-0.60;86.40;;;;;;5076873;28;20206;-77
2022/03/04 04:09:09;;;;;;;13.47;6.37;;;-0.60;86.50;;;;;;5073353;28;20187;-77
2022/03/04 04:11:36;;;;;;;8.83;6.23;;;-0.60;86.80;;;;;;5075245;28;20190;-77
2022/03/04 04:14:06;;;;;;;12.43;7.27;;;-0.60;86.90;;;;;;5077511;28;20237;-77
2022/03/04 04:16:33;;;;;;;8.73;6.80;;;-0.60;86.80;;;;;;5071493;28;20653;-78
2022/03/04 04:19:00;;;;;;;14.70;7.40;;;-0.70;86.90;;;;;;5071587;28;20186;-78
2022/03/04 04:21:26;;;;;;;11.43;7.37;;;-0.70;87.10;;;;;;5070715;28;20190;-78
2022/03/04 04:23:55;;;;;;;9.00;6.80;;;-0.70;87.20;;;;;;5069781;28;20198;-78
2022/03/04 04:26:21;;;;;;;13.80;7.87;;;-0.80;87.20;;;;;;5069373;28;20252;-78
2022/03/04 04:28:48;;;;;;;12.47;6.40;;;-0.80;87.30;;;;;;5073285;28;20248;-78
2022/03/04 04:31:14;;;;;;;13.37;7.10;;;-0.80;87.30;;;;;;5074709;28;20896;-78
2022/03/04 04:33:40;;;;;;;9.63;6.80;;;-0.70;87.30;;;;;;5069888;28;20214;-78
2022/03/04 04:36:08;;;;;;;12.90;6.27;;;-0.80;87.30;;;;;;5072028;28;20213;-78
2022/03/04 04:38:34;;;;;;;8.30;7.20;;;-0.70;87.20;;;;;;5067838;28;20697;-78
2022/03/04 04:41:00;;;;;;;7.03;5.57;;;-0.80;87.30;;;;;;5072526;28;20258;-78
2022/03/04 04:43:25;;;;;;;7.30;6.17;;;-0.70;87.50;;;;;;5071567;28;20261;-78
2022/03/04 04:45:51;;;;;;;7.97;6.93;;;-0.70;87.50;;;;;;5068724;28;20207;-78
2022/03/04 04:48:17;;;;;;;10.20;7.20;;;-0.80;87.50;;;;;;5073419;28;20264;-78
2022/03/04 04:50:43;;;;;;;7.53;5.43;;;-0.70;87.50;;;;;;5074032;28;20866;-76
2022/03/04 04:53:09;;;;;;;7.63;6.03;;;-0.70;87.50;;;;;;5071641;28;20214;-79
2022/03/04 04:55:35;;;;;;;7.83;6.43;;;-0.70;87.50;;;;;;5071882;28;20622;-78
2022/03/04 04:58:00;;;;;;;8.33;6.03;;;-0.70;87.50;;;;;;5063123;28;20274;-79
2022/03/04 05:00:26;;;;;;;8.60;7.13;;;-0.70;87.40;;;;;;5060581;28;20241;-79
2022/03/04 05:02:52;;;;;;;9.80;6.43;;;-0.70;87.50;;;;;;5072744;28;20225;-79
2022/03/04 05:05:19;;;;;;;13.67;6.27;;;-0.80;87.50;;;;;;5076971;28;20826;-79
2022/03/04 05:07:45;;;;;;;9.33;6.93;;;-0.80;87.60;;;;;;5069602;28;20197;-78
2022/03/04 05:10:12;;;;;;;7.77;6.50;;;-0.70;87.70;;;;;;5068446;28;20202;-77
2022/03/04 05:12:38;;;;;;;6.57;4.27;;;-0.70;87.60;;;;;;5074904;28;20261;-79
2022/03/04 05:15:04;;;;;;;9.37;5.33;;;-0.70;87.60;;;;;;5071473;28;20190;-79
2022/03/04 05:17:30;;;;;;;12.83;6.83;;;-0.70;87.40;;;;;;5072858;28;20179;-78
2022/03/04 05:19:56;;;;;;;10.50;6.47;;;-0.70;87.50;;;;;;5069892;28;20193;-78
2022/03/04 05:22:22;;;;;;;9.60;5.97;;;-0.70;87.60;;;;;;5074465;28;20246;-78
2022/03/04 05:24:48;;;;;;;17.77;6.43;;;-0.70;87.40;;;;;;5071946;28;20197;-78
2022/03/04 05:27:13;;;;;;;11.90;6.40;;;-0.70;87.40;;;;;;5069519;28;20194;-79
2022/03/04 05:29:39;;;;;;;7.83;6.80;;;-0.70;87.60;;;;;;5067804;28;20732;-78
2022/03/04 05:32:05;;;;;;;10.53;7.23;;;-0.70;87.60;;;;;;5071836;28;20182;-78
2022/03/04 05:34:31;;;;;;;11.20;5.77;;;-0.60;87.60;;;;;;5068577;28;20218;-79
2022/03/04 05:36:57;;;;;;;8.73;6.50;;;-0.60;87.60;;;;;;5072338;28;20189;-79
2022/03/04 05:39:22;;;;;;;8.90;6.30;;;-0.60;87.60;;;;;;5070533;28;20260;-79
2022/03/04 05:41:48;;;;;;;17.60;7.63;;;-0.60;87.70;;;;;;5073196;28;20195;-78
2022/03/04 05:44:14;;;;;;;9.07;7.47;;;-0.50;87.70;;;;;;5072379;28;20198;-78
2022/03/04 05:46:40;;;;;;;9.77;6.20;;;-0.50;87.80;;;;;;5073392;28;20265;-78
2022/03/04 05:49:05;;;;;;;13.80;6.17;;;-0.50;87.70;;;;;;5072470;28;20183;-78
2022/03/04 05:51:32;;;;;;;14.80;8.27;;;-0.50;87.80;;;;;;5070657;28;20245;-77
2022/03/04 05:53:57;;;;;;;9.87;7.37;;;-0.50;87.80;;;;;;5075848;28;20206;-80
2022/03/04 05:56:23;;;;;;;18.87;7.17;;;-0.50;87.70;;;;;;5071392;28;20860;-79
2022/03/04 05:58:50;;;;;;;13.73;8.20;;;-0.50;87.90;;;;;;5069555;28;20190;-79
2022/03/04 06:01:15;;;;;;;10.53;7.80;;;-0.50;87.80;;;;;;5071898;28;20189;-79
2022/03/04 06:03:41;;;;;;;7.87;7.07;;;-0.40;87.80;;;;;;5074202;28;20602;-79
2022/03/04 06:06:11;;;;;;;12.80;7.20;;;-0.40;87.80;;;;;;5073226;28;20182;-79
2022/03/04 06:08:37;;;;;;;11.20;7.37;;;-0.30;87.80;;;;;;5067028;28;20189;-79
2022/03/04 06:11:03;;;;;;;10.17;7.33;;;-0.30;87.70;;;;;;5071577;28;20182;-80
2022/03/04 06:13:29;;;;;;;14.60;8.87;;;-0.10;87.70;;;;;;5069098;28;20194;-77
2022/03/04 06:15:54;;;;;;;10.13;7.30;;;0.00;87.50;;;;;;5076290;28;20579;-78
2022/03/04 06:18:20;;;;;;;13.20;7.07;;;0.10;87.50;;;;;;5065344;28;20179;-78
2022/03/04 06:20:46;;;;;;;10.90;8.00;;;0.20;87.30;;;;;;5075565;28;20182;-78
2022/03/04 06:23:13;;;;;;;18.93;7.27;;;0.30;87.00;;;;;;5070479;28;20676;-79
2022/03/04 06:25:39;;;;;;;28.70;8.87;;;0.40;86.40;;;;;;5072227;28;20193;-79
2022/03/04 06:28:06;;;;;;;11.30;7.77;;;0.50;86.10;;;;;;5069935;28;20179;-77
2022/03/04 06:30:36;;;;;;;15.40;9.40;;;0.70;86.00;;;;;;5066814;28;20175;-77
2022/03/04 06:35:48;;;;;;;12.93;8.30;;;0.80;85.30;;;;;;5066427;28;20189;-78
2022/03/04 06:38:17;;;;;;;10.10;7.57;;;0.90;85.20;;;;;;5068428;28;20189;-77
2022/03/04 06:40:43;;;;;;;15.53;8.20;;;0.90;85.10;;;;;;5071374;28;20910;-77
2022/03/04 06:43:09;;;;;;;13.50;8.47;;;1.10;84.90;;;;;;5068755;28;20285;-78
2022/03/04 06:45:35;;;;;;;13.13;8.93;;;1.20;84.60;;;;;;5069898;28;20186;-79
2022/03/04 06:48:01;;;;;;;17.83;9.77;;;1.20;84.30;;;;;;5078807;28;20320;-80
2022/03/04 06:50:27;;;;;;;13.40;8.30;;;1.30;84.20;;;;;;5071597;28;20986;-78
2022/03/04 06:52:53;;;;;;;14.27;9.03;;;1.40;84.10;;;;;;5068658;28;20600;-74
2022/03/04 06:55:19;;;;;;;16.80;9.87;;;1.50;84.00;;;;;;5067882;28;20178;-78
2022/03/04 06:57:51;;;;;;;17.20;9.70;;;1.60;83.80;;;;;;5067705;28;21017;-77
2022/03/04 07:00:17;;;;;;;15.50;8.53;;;1.70;83.50;;;;;;5073681;28;20233;-81
2022/03/04 07:02:44;;;;;;;17.43;9.37;;;1.80;83.40;;;;;;5072890;28;20198;-78
2022/03/04 07:05:10;;;;;;;12.93;8.10;;;1.90;82.90;;;;;;5075355;28;20175;-78
2022/03/04 07:07:36;;;;;;;22.70;10.23;;;2.00;82.30;;;;;;5072118;28;20179;-77
2022/03/04 07:10:03;;;;;;;24.97;10.10;;;2.10;82.00;;;;;;5070205;28;20183;-75
2022/03/04 07:12:29;;;;;;;15.37;8.23;;;2.20;81.80;;;;;;5072031;28;20679;-75
2022/03/04 07:14:55;;;;;;;17.30;10.67;;;2.30;81.60;;;;;;5071587;28;20233;-75
2022/03/04 07:17:21;;;;;;;17.37;9.13;;;2.30;81.30;;;;;;5075276;28;20668;-75
2022/03/04 07:19:47;;;;;;;32.67;10.97;;;2.40;81.10;;;;;;5079156;28;20254;-74
2022/03/04 07:22:12;;;;;;;20.97;9.67;;;2.50;81.00;;;;;;5071302;28;20899;-74
2022/03/04 07:24:38;;;;;;;14.17;9.97;;;2.60;80.90;;;;;;5078776;28;20187;-74
2022/03/04 07:27:04;;;;;;;15.53;10.17;;;2.60;80.20;;;;;;5075119;28;20593;-74
2022/03/04 07:29:30;;;;;;;19.93;9.17;;;2.70;79.10;;;;;;5073648;28;20240;-75
2022/03/04 07:31:56;;;;;;;15.70;7.83;;;2.80;79.20;;;;;;5074394;28;20186;-75
2022/03/04 07:34:22;;;;;;;12.20;8.97;;;2.90;79.40;;;;;;5071629;28;20217;-75
2022/03/04 07:36:49;;;;;;;14.67;10.43;;;3.10;79.40;;;;;;5070122;28;20222;-77
2022/03/04 07:39:15;;;;;;;20.50;9.30;;;3.20;77.90;;;;;;5069486;28;20180;-77
2022/03/04 07:41:41;;;;;;;18.57;9.93;;;3.20;78.30;;;;;;5077903;28;20198;-77
2022/03/04 07:44:07;;;;;;;20.03;9.63;;;3.40;78.30;;;;;;5073582;28;20580;-75
2022/03/04 07:46:33;;;;;;;17.60;11.57;;;3.50;77.70;;;;;;5069902;28;20182;-76
2022/03/04 07:48:59;;;;;;;17.27;10.10;;;3.60;77.50;;;;;;5074367;28;20187;-77
2022/03/04 07:51:25;;;;;;;16.73;10.57;;;3.80;78.10;;;;;;5074604;28;20278;-76
2022/03/04 07:53:51;;;;;;;13.13;9.70;;;3.90;76.50;;;;;;5070499;28;20275;-77
2022/03/04 07:56:17;;;;;;;18.20;10.27;;;4.10;76.50;;;;;;5079116;28;20191;-76
2022/03/04 07:58:43;;;;;;;12.80;9.33;;;4.30;76.80;;;;;;5072484;28;20676;-76
2022/03/04 08:01:09;;;;;;;14.70;9.47;;;4.50;76.70;;;;;;5067845;28;20186;-77
2022/03/04 08:03:35;;;;;;;18.13;9.40;;;4.70;75.70;;;;;;5075078;28;20182;-77
2022/03/04 08:06:01;;;;;;;13.27;8.70;;;4.90;74.60;;;;;;5074424;28;20186;-77
2022/03/04 08:08:28;;;;;;;19.83;11.23;;;5.10;74.20;;;;;;5070271;28;20235;-77
2022/03/04 08:10:54;;;;;;;20.47;10.93;;;5.40;73.70;;;;;;5073959;28;20187;-76
2022/03/04 08:13:20;;;;;;;23.00;11.00;;;5.50;73.00;;;;;;5076030;28;20213;-76
2022/03/04 08:15:46;;;;;;;14.00;8.93;;;5.60;71.80;;;;;;5070919;28;20185;-76
2022/03/04 08:18:12;;;;;;;15.87;9.13;;;5.70;71.60;;;;;;5065417;28;20182;-77
